Time;durP1;ratioP1;P1;durP2;ratioP2;P2;SDS_P1;SDS_P2;PMS_P1;PMS_P2;Temp;Humidity;BMP_temperature;BMP_pressure;BME280_temperature;BME280_humidity;BME280_pressure;Samples;Min_cycle;Max_cycle;Signal;HPM_P1;HPM_P2
2023/08/20 00:03:36;;;;;;;0.10;0.10;;;;;;;-145.06;100.00;39660.94;10388217;28;20277;-68
2023/08/20 00:08:36;;;;;;;0.10;0.10;;;;;;;-145.06;100.00;39660.94;10385364;28;20017;-67
2023/08/20 00:13:36;;;;;;;0.10;0.10;;;;;;;-145.06;100.00;39669.00;10380773;28;20417;-68
2023/08/20 00:18:38;;;;;;;0.10;0.10;;;;;;;-145.06;100.00;39693.22;10375419;28;20026;-67
2023/08/20 00:23:38;;;;;;;0.10;0.10;;;;;;;-145.06;100.00;39644.81;10389169;28;20127;-67
2023/08/20 00:28:39;;;;;;;0.10;0.10;;;;;;;-145.06;100.00;39695.25;10395318;28;20048;-68
2023/08/20 00:33:39;;;;;;;0.10;0.10;;;;;;;-145.06;100.00;39681.13;10377886;28;20070;-68
2023/08/20 00:38:39;;;;;;;0.00;0.00;;;;;;;-145.06;100.00;39689.19;10389949;28;20018;-68
2023/08/20 00:43:40;;;;;;;0.10;0.10;;;;;;;-145.06;100.00;39691.22;10378960;28;20033;-67
2023/08/20 00:48:40;;;;;;;0.10;0.10;;;;;;;-145.06;100.00;39745.69;10388406;28;20104;-67
2023/08/20 00:53:40;;;;;;;0.10;0.10;;;;;;;-145.06;100.00;39733.59;10390223;28;20030;-67
2023/08/20 00:58:41;;;;;;;0.10;0.10;;;;;;;-145.06;100.00;39769.91;10365270;28;20076;-67
2023/08/20 01:03:41;;;;;;;0.10;0.10;;;;;;;-145.06;100.00;39784.03;10397144;28;20033;-67
2023/08/20 01:08:45;;;;;;;0.10;0.10;;;;;;;-145.06;100.00;39765.88;10396239;28;20033;-67
2023/08/20 01:13:46;;;;;;;0.10;0.10;;;;;;;-145.06;100.00;39812.28;10380716;28;20390;-67
2023/08/20 01:18:47;;;;;;;0.10;0.10;;;;;;;-145.06;100.00;39822.38;10401425;28;20013;-67
2023/08/20 01:24:14;;;;;;;0.10;0.10;;;;;;;-145.06;100.00;39848.59;10390732;28;20049;-67
2023/08/20 01:29:15;;;;;;;0.08;0.08;;;;;;;-145.06;100.00;39826.41;10389834;28;20030;-67
2023/08/20 01:34:16;;;;;;;0.10;0.10;;;;;;;-145.06;100.00;39854.66;10395003;28;20009;-67
2023/08/20 01:39:18;;;;;;;0.10;0.10;;;;;;;-145.06;100.00;39836.50;10366821;28;20466;-67
2023/08/20 01:44:18;;;;;;;0.10;0.10;;;;;;;-145.06;100.00;39880.91;10380415;28;20280;-67
2023/08/20 01:49:19;;;;;;;0.10;0.10;;;;;;;-145.06;100.00;39886.94;10375544;28;20021;-67
2023/08/20 01:54:19;;;;;;;0.10;0.10;;;;;;;-145.06;100.00;39862.72;10387060;28;20047;-67
2023/08/20 01:59:21;;;;;;;0.10;0.10;;;;;;;-145.06;100.00;39866.78;10400152;28;20093;-67
2023/08/20 02:04:22;;;;;;;0.10;0.10;;;;;;;-145.06;100.00;39842.56;10371925;28;20102;-67
2023/08/20 02:09:22;;;;;;;0.10;0.10;;;;;;;-145.06;100.00;39808.25;10392208;28;20316;-67
2023/08/20 02:14:22;;;;;;;0.10;0.10;;;;;;;-145.06;100.00;39852.66;10361782;28;20025;-67
2023/08/20 02:19:23;;;;;;;0.10;0.10;;;;;;;-145.06;100.00;39828.44;10382369;28;20029;-67
2023/08/20 02:24:23;;;;;;;0.10;0.10;;;;;;;-145.06;100.00;39818.34;10400997;28;20034;-67
2023/08/20 02:29:23;;;;;;;0.10;0.10;;;;;;;-145.06;100.00;39751.75;10401864;28;20029;-67
2023/08/20 02:34:24;;;;;;;0.10;0.10;;;;;;;-145.06;100.00;39782.00;10404205;28;20018;-68
2023/08/20 02:39:24;;;;;;;0.03;0.03;;;;;;;-145.06;100.00;39731.56;10387119;28;20028;-68
2023/08/20 02:44:25;;;;;;;0.10;0.10;;;;;;;-145.06;100.00;39739.63;10387495;28;20021;-68
2023/08/20 02:49:25;;;;;;;0.10;0.10;;;;;;;-145.06;100.00;39743.69;10384733;28;20022;-68
2023/08/20 02:54:25;;;;;;;0.10;0.10;;;;;;;-145.06;100.00;39725.50;10379629;28;20024;-68
2023/08/20 02:59:26;;;;;;;0.10;0.10;;;;;;;-145.06;100.00;39735.59;10374387;28;20557;-68
2023/08/20 03:04:26;;;;;;;0.10;0.10;;;;;;;-145.06;100.00;39711.38;10371789;28;20058;-68
2023/08/20 03:09:27;;;;;;;0.00;0.00;;;;;;;-145.06;100.00;39691.22;10372274;28;20117;-68
2023/08/20 03:14:27;;;;;;;0.10;0.10;;;;;;;-145.06;100.00;39664.97;10357744;28;20026;-68
2023/08/20 03:24:32;;;;;;;0.10;0.10;;;;;;;-145.06;100.00;39717.44;10315468;28;20115;-69
2023/08/20 03:29:32;;;;;;;0.10;0.10;;;;;;;-145.06;100.00;39741.66;10316708;28;20034;-68
2023/08/20 03:34:33;;;;;;;0.00;0.00;;;;;;;-145.06;100.00;39691.22;10317917;28;20030;-68
2023/08/20 03:39:33;;;;;;;0.10;0.10;;;;;;;-145.06;100.00;39741.66;10318075;28;20100;-69
2023/08/20 03:44:33;;;;;;;0.05;0.05;;;;;;;-145.06;100.00;39693.22;10316045;28;20018;-69
2023/08/20 03:49:34;;;;;;;0.10;0.10;;;;;;;-145.06;100.00;39713.41;10321351;28;20049;-69
2023/08/20 03:54:34;;;;;;;0.10;0.10;;;;;;;-145.06;100.00;39705.34;10326113;28;20508;-70
2023/08/20 03:59:34;;;;;;;0.10;0.10;;;;;;;-145.06;100.00;39709.38;10318270;28;20034;-68
2023/08/20 04:04:36;;;;;;;0.10;0.10;;;;;;;-145.06;100.00;39725.50;10316759;28;20028;-68
2023/08/20 04:09:38;;;;;;;0.10;0.10;;;;;;;-145.06;100.00;39705.34;10319764;28;20041;-67
2023/08/20 04:14:38;;;;;;;0.10;0.10;;;;;;;-145.06;100.00;39709.38;10320411;28;20076;-67
2023/08/20 04:19:38;;;;;;;0.10;0.10;;;;;;;-145.06;100.00;39703.31;10321914;28;20036;-66
2023/08/20 04:24:39;;;;;;;0.10;0.10;;;;;;;-145.06;100.00;39721.47;10327004;28;20049;-67
2023/08/20 04:29:39;;;;;;;0.10;0.10;;;;;;;-145.06;100.00;39721.47;10329273;28;20050;-67
2023/08/20 04:34:39;;;;;;;0.10;0.10;;;;;;;-145.06;100.00;39705.34;10329253;28;20022;-67
2023/08/20 04:39:39;;;;;;;0.10;0.10;;;;;;;-145.06;100.00;39713.41;10326787;28;20030;-68
2023/08/20 04:44:40;;;;;;;0.00;0.00;;;;;;;-145.06;100.00;39705.34;10327408;28;20024;-67
2023/08/20 04:49:40;;;;;;;0.10;0.10;;;;;;;-145.06;100.00;39705.34;10328558;28;20030;-67
2023/08/20 04:54:40;;;;;;;0.00;0.00;;;;;;;-145.06;100.00;39701.31;10330030;28;20015;-67
2023/08/20 04:59:44;;;;;;;0.10;0.10;;;;;;;-145.06;100.00;39699.28;10337723;28;20033;-67
2023/08/20 05:04:45;;;;;;;0.10;0.10;;;;;;;-145.06;100.00;39667.00;10330021;28;20442;-70
2023/08/20 05:09:45;;;;;;;0.10;0.10;;;;;;;-145.06;100.00;39580.22;10332064;28;20026;-67
2023/08/20 05:14:46;;;;;;;0.10;0.10;;;;;;;-145.06;100.00;39600.41;10330577;28;20019;-68
2023/08/20 05:19:46;;;;;;;0.10;0.10;;;;;;;-145.06;100.00;39519.69;10329355;28;20041;-68
2023/08/20 05:24:46;;;;;;;0.10;0.10;;;;;;;-145.06;100.00;39469.25;10329966;28;20089;-68
2023/08/20 05:29:47;;;;;;;0.10;0.10;;;;;;;-145.06;100.00;39432.94;10331115;28;20057;-68
2023/08/20 05:34:47;;;;;;;0.10;0.10;;;;;;;-145.06;100.00;39461.19;10334711;28;20502;-68
2023/08/20 05:39:47;;;;;;;0.15;0.15;;;;;;;-145.06;100.00;39426.88;10324772;28;20038;-67
2023/08/20 05:44:47;;;;;;;0.10;0.10;;;;;;;-145.06;100.00;39408.72;10329501;28;20026;-67
2023/08/20 05:49:48;;;;;;;0.00;0.00;;;;;;;-145.06;100.00;39354.25;10323124;28;20047;-67
2023/08/20 05:54:48;;;;;;;0.10;0.10;;;;;;;-145.06;100.00;39372.41;10340520;28;20022;-67
2023/08/20 05:59:49;;;;;;;0.10;0.10;;;;;;;-145.06;100.00;39311.88;10339362;28;20024;-67
2023/08/20 06:04:50;;;;;;;0.00;0.00;;;;;;;-145.06;100.00;39332.03;10344845;28;20065;-68
2023/08/20 06:09:51;;;;;;;0.00;0.00;;;;;;;-145.06;100.00;39315.91;10336779;28;20026;-69
2023/08/20 06:14:51;;;;;;;0.10;0.10;;;;;;;-145.06;100.00;39291.69;10327144;28;20487;-68
2023/08/20 06:19:51;;;;;;;0.10;0.10;;;;;;;-145.06;100.00;39311.88;10327339;28;20038;-68
2023/08/20 06:24:52;;;;;;;0.10;0.10;;;;;;;-145.06;100.00;39261.44;10327249;28;20399;-67
2023/08/20 06:29:52;;;;;;;0.00;0.00;;;;;;;-145.06;100.00;39200.91;10326187;28;20061;-68
2023/08/20 06:34:52;;;;;;;0.00;0.00;;;;;;;-145.06;100.00;39192.81;10326504;28;20026;-68
2023/08/20 06:39:53;;;;;;;0.10;0.10;;;;;;;-145.06;100.00;39174.66;10324377;28;20040;-68
2023/08/20 06:44:53;;;;;;;0.10;0.10;;;;;;;-145.06;100.00;39148.44;10326044;28;20030;-68
2023/08/20 06:49:53;;;;;;;0.00;0.00;;;;;;;-145.06;100.00;38944.66;10333381;28;20034;-68
2023/08/20 06:54:53;;;;;;;0.10;0.10;;;;;;;-145.06;100.00;38601.72;10325940;28;20502;-67
2023/08/20 06:59:54;;;;;;;0.00;0.00;;;;;;;-145.06;100.00;38662.22;10308742;28;20025;-68
2023/08/20 07:04:54;;;;;;;0.00;0.00;;;;;;;-145.06;100.00;38795.38;10333852;28;20027;-68
2023/08/20 07:09:54;;;;;;;0.00;0.00;;;;;;;-145.06;100.00;38393.94;10324610;28;20105;-69
2023/08/20 07:14:54;;;;;;;0.10;0.10;;;;;;;-145.06;98.74;38135.72;10325870;28;20026;-68
2023/08/20 07:19:55;;;;;;;0.10;0.10;;;;;;;-145.06;100.00;38379.81;10325027;28;20022;-68
2023/08/20 07:24:56;;;;;;;0.10;0.10;;;;;;;-145.06;92.57;37849.31;10323948;28;20054;-69
2023/08/20 07:29:57;;;;;;;0.10;0.10;;;;;;;-145.06;81.06;37405.63;10325330;28;20049;-69
2023/08/20 07:34:57;;;;;;;0.10;0.10;;;;;;;-145.06;76.01;36853.06;10325753;28;20035;-69
2023/08/20 07:39:57;;;;;;;0.00;0.00;;;;;;;-145.06;70.07;36657.50;10307426;28;20368;-69
2023/08/20 07:44:58;;;;;;;0.10;0.10;;;;;;;-145.06;70.88;37030.53;10325242;28;20018;-69
2023/08/20 07:49:58;;;;;;;0.10;0.10;;;;;;;-145.06;72.13;37117.22;10324838;28;20018;-69
2023/08/20 07:54:58;;;;;;;0.10;0.10;;;;;;;-145.06;67.44;36832.91;10327465;28;20018;-69
2023/08/20 07:59:58;;;;;;;0.10;0.10;;;;;;;-145.06;67.42;36490.13;10341128;28;20442;-69
2023/08/20 08:04:59;;;;;;;0.10;0.10;;;;;;;-145.06;65.41;36613.13;10333508;28;20026;-69
2023/08/20 08:09:59;;;;;;;0.10;0.10;;;;;;;-145.06;65.47;36508.28;10332683;28;20392;-69
2023/08/20 08:14:59;;;;;;;0.10;0.10;;;;;;;-145.06;63.69;36417.56;10341201;28;20027;-69
2023/08/20 08:20:00;;;;;;;0.10;0.10;;;;;;;-145.06;61.67;36284.47;10314717;28;20018;-69
2023/08/20 08:25:00;;;;;;;0.10;0.10;;;;;;;-145.06;61.15;36211.91;10330635;28;20022;-69
2023/08/20 08:30:00;;;;;;;0.10;0.10;;;;;;;-145.06;62.46;36058.69;10328378;28;20030;-69
2023/08/20 08:35:00;;;;;;;0.10;0.10;;;;;;;-145.06;57.53;36008.28;10331568;28;20022;-69
2023/08/20 08:40:05;;;;;;;0.10;0.10;;;;;;;-145.06;57.73;35945.78;10326258;28;20459;-68
2023/08/20 08:45:06;;;;;;;0.10;0.10;;;;;;;-145.06;55.57;36038.53;10329128;28;20068;-67
2023/08/20 08:50:08;;;;;;;0.10;0.10;;;;;;;-145.06;55.52;36064.72;10330827;28;20018;-68
2023/08/20 08:55:09;;;;;;;0.10;0.10;;;;;;;-145.06;53.87;36179.66;10344466;28;20065;-67
2023/08/20 09:00:09;;;;;;;0.10;0.10;;;;;;;-145.06;56.87;36209.88;10329002;28;20053;-66
2023/08/20 09:05:13;;;;;;;0.10;0.10;;;;;;;-145.06;55.64;36349.00;10327028;28;20089;-67
2023/08/20 09:10:17;;;;;;;0.10;0.10;;;;;;;-145.06;57.35;36353.03;10323607;28;20026;-67
2023/08/20 09:15:17;;;;;;;0.10;0.10;;;;;;;-145.06;59.35;36425.63;10311448;28;20019;-66
2023/08/20 09:20:33;;;;;;;0.10;0.10;;;;;;;-145.06;60.48;36423.59;10329915;28;20035;-67
2023/08/20 09:25:33;;;;;;;0.10;0.10;;;;;;;-145.06;56.11;36546.59;10334950;28;20057;-67
2023/08/20 09:30:34;;;;;;;0.00;0.00;;;;;;;-145.06;57.77;36699.81;10333036;28;20057;-67
2023/08/20 09:35:34;;;;;;;0.00;0.00;;;;;;;-145.06;62.42;36615.16;10336650;28;20476;-67
2023/08/20 09:40:34;;;;;;;0.10;0.10;;;;;;;-145.06;61.38;36474.00;10327257;28;20029;-67
2023/08/20 09:45:37;;;;;;;0.00;0.00;;;;;;;-145.06;58.13;36657.50;10327884;28;20265;-66
2023/08/20 09:50:37;;;;;;;0.10;0.10;;;;;;;-145.06;61.43;36611.09;10331347;28;20037;-66
2023/08/20 09:55:41;;;;;;;0.00;0.00;;;;;;;-145.06;59.21;36570.78;10326162;28;20030;-66
2023/08/20 10:00:42;;;;;;;0.00;0.00;;;;;;;-145.06;57.08;36576.84;10324787;28;20044;-66
2023/08/20 10:05:42;;;;;;;0.10;0.10;;;;;;;-145.06;61.25;36715.97;10325138;28;20113;-66
2023/08/20 10:10:43;;;;;;;0.10;0.10;;;;;;;-145.06;57.17;36711.94;10325467;28;20033;-66
2023/08/20 10:15:45;;;;;;;0.00;0.00;;;;;;;-145.06;59.69;36623.22;10328762;28;20030;-67
2023/08/20 10:20:45;;;;;;;;;;;;;;;-145.06;59.50;36722.00;10326916;28;20114;-67
2023/08/20 10:25:46;;;;;;;0.00;0.00;;;;;;;-145.06;60.20;36611.09;10328498;28;19992;-66
2023/08/20 10:31:09;;;;;;;0.10;0.10;;;;;;;-145.06;55.99;36796.63;10332995;28;20561;-66
2023/08/20 10:36:14;;;;;;;0.10;0.10;;;;;;;-145.06;62.56;36972.03;10330467;28;20086;-66
2023/08/20 10:41:16;;;;;;;0.10;0.10;;;;;;;-145.06;60.70;36889.38;10323083;28;20022;-66
2023/08/20 10:46:20;;;;;;;0.10;0.10;;;;;;;-145.06;61.14;36796.63;10327322;28;20060;-66
2023/08/20 10:51:23;;;;;;;0.10;0.10;;;;;;;-145.06;61.11;36750.25;10325735;28;20049;-66
2023/08/20 10:56:38;;;;;;;0.00;0.00;;;;;;;-145.06;57.70;36673.63;10326757;28;20022;-66
2023/08/20 11:01:39;;;;;;;0.10;0.10;;;;;;;-145.06;62.37;36832.91;10325710;28;20372;-66
2023/08/20 11:06:39;;;;;;;0.10;0.10;;;;;;;-145.06;59.96;36851.06;10326515;28;20022;-66
2023/08/20 11:11:40;;;;;;;0.10;0.10;;;;;;;-145.06;60.35;36766.38;10322870;28;20467;-66
2023/08/20 11:16:41;;;;;;;0.10;0.10;;;;;;;-145.06;56.38;36840.97;10333350;28;20090;-66
2023/08/20 11:21:42;;;;;;;0.10;0.10;;;;;;;-145.06;60.47;36851.06;10325577;28;20022;-66
2023/08/20 11:26:43;;;;;;;0.10;0.10;;;;;;;-145.06;58.88;36840.97;10325627;28;20283;-66
2023/08/20 11:31:44;;;;;;;0.00;0.00;;;;;;;-145.06;58.20;36961.97;10324611;28;20019;-68
2023/08/20 11:36:44;;;;;;;0.00;0.00;;;;;;;-145.06;56.17;37171.69;10325865;28;20558;-68
2023/08/20 11:41:45;;;;;;;0.10;0.10;;;;;;;-145.06;60.93;37139.41;10324059;28;20383;-67
2023/08/20 11:46:46;;;;;;;0.10;0.10;;;;;;;-145.06;59.59;37276.53;10325791;28;20042;-69
2023/08/20 11:51:49;;;;;;;0.00;0.00;;;;;;;-145.06;59.58;37312.84;10308139;28;20025;-68
2023/08/20 11:56:51;;;;;;;0.10;0.10;;;;;;;-145.06;59.83;37284.63;10320051;28;20019;-69
2023/08/20 12:01:57;;;;;;;0.00;0.00;;;;;;;-145.06;61.59;37260.41;10328364;28;20399;-68
2023/08/20 12:07:06;;;;;;;0.00;0.00;;;;;;;-145.06;59.69;37248.31;10320168;28;20371;-68
2023/08/20 12:12:07;;;;;;;0.00;0.00;;;;;;;-145.06;57.04;37185.81;10317124;28;20533;-68
2023/08/20 12:17:08;;;;;;;0.10;0.10;;;;;;;-145.06;55.96;37167.66;10322888;28;20034;-68
2023/08/20 12:22:08;;;;;;;0.10;0.10;;;;;;;-145.06;56.42;37117.22;10319558;28;20029;-70
2023/08/20 12:27:08;;;;;;;0.00;0.00;;;;;;;-145.06;54.82;37143.44;10318199;28;20361;-67
2023/08/20 12:32:09;;;;;;;0.00;0.00;;;;;;;-145.06;57.32;37203.94;10310140;28;20578;-67
2023/08/20 12:37:09;;;;;;;0.10;0.10;;;;;;;-145.06;55.89;37220.09;10320419;28;20023;-67
2023/08/20 12:42:09;;;;;;;0.10;0.10;;;;;;;-145.06;55.70;37248.31;10320611;28;20027;-69
2023/08/20 12:47:09;;;;;;;0.00;0.00;;;;;;;-145.06;58.77;37191.84;10329390;28;20026;-66
2023/08/20 12:52:10;;;;;;;0.10;0.10;;;;;;;-145.06;58.98;37282.59;10337012;28;20024;-66
2023/08/20 12:57:10;;;;;;;0.00;0.00;;;;;;;-145.06;59.57;37234.19;10332522;28;20085;-66
2023/08/20 13:02:10;;;;;;;0.00;0.00;;;;;;;-145.06;57.63;37232.19;10332334;28;20035;-66
2023/08/20 13:07:13;;;;;;;0.00;0.00;;;;;;;-145.06;57.26;37284.63;10325946;28;20026;-66
2023/08/20 13:12:16;;;;;;;0.00;0.00;;;;;;;-145.06;57.65;37286.63;10326115;28;20034;-66
2023/08/20 13:17:17;;;;;;;0.10;0.10;;;;;;;-145.06;53.99;37324.94;10324863;28;20034;-67
2023/08/20 13:22:17;;;;;;;0.00;0.00;;;;;;;-145.06;57.91;37357.22;10335671;28;20117;-66
2023/08/20 13:27:18;;;;;;;0.10;0.10;;;;;;;-145.06;57.54;37326.97;10331530;28;20022;-66
2023/08/20 13:32:18;;;;;;;0.00;0.00;;;;;;;-145.06;57.14;37339.06;10325353;28;20031;-66
2023/08/20 13:37:18;;;;;;;0.00;0.00;;;;;;;-145.06;62.17;37460.06;10339898;28;20427;-65
2023/08/20 13:42:18;;;;;;;0.00;0.00;;;;;;;-145.06;57.99;37506.44;10321795;28;20046;-65
2023/08/20 13:47:19;;;;;;;0.00;0.00;;;;;;;-145.06;57.33;37506.44;10324958;28;20030;-66
2023/08/20 13:52:19;;;;;;;0.00;0.00;;;;;;;-145.06;59.42;37458.06;10327383;28;20026;-66
2023/08/20 13:57:19;;;;;;;0.00;0.00;;;;;;;-145.06;58.28;37397.53;10325996;28;20640;-72
2023/08/20 14:02:20;;;;;;;0.10;0.10;;;;;;;-145.06;54.85;37445.94;10324746;28;20052;-69
2023/08/20 14:07:20;;;;;;;0.00;0.00;;;;;;;-145.06;56.25;37429.81;10328485;28;20443;-70
2023/08/20 14:12:20;;;;;;;0.10;0.10;;;;;;;-145.06;61.71;37540.72;10328304;28;20014;-70
2023/08/20 14:17:21;;;;;;;0.00;0.00;;;;;;;-145.06;60.47;37579.06;10330572;28;20111;-70
2023/08/20 14:22:21;;;;;;;0.07;0.07;;;;;;;-145.06;60.66;37696.03;10332796;28;20042;-70
2023/08/20 14:27:22;;;;;;;0.00;0.00;;;;;;;-145.06;64.16;37829.16;10332075;28;20084;-70
2023/08/20 14:32:22;;;;;;;0.10;0.10;;;;;;;-145.06;67.11;37932.00;10329185;28;20026;-70
2023/08/20 14:37:23;;;;;;;0.10;0.10;;;;;;;-145.06;68.95;37897.72;10325409;28;20161;-70
2023/08/20 14:42:23;;;;;;;0.00;0.00;;;;;;;-145.06;67.29;37936.03;10330381;28;20487;-70
2023/08/20 14:47:23;;;;;;;0.10;0.10;;;;;;;-145.06;66.73;38006.63;10326481;28;20026;-70
2023/08/20 14:52:23;;;;;;;0.00;0.00;;;;;;;-145.06;67.93;38016.72;10332938;28;20037;-70
2023/08/20 14:57:24;;;;;;;0.10;0.10;;;;;;;-145.06;69.30;38049.00;10326799;28;20089;-70
2023/08/20 15:02:24;;;;;;;0.10;0.10;;;;;;;-145.06;69.54;38049.00;10325693;28;20090;-70
2023/08/20 15:07:24;;;;;;;0.10;0.10;;;;;;;-145.06;69.15;38170.03;10324069;28;20026;-70
2023/08/20 15:12:24;;;;;;;0.10;0.10;;;;;;;-145.06;70.57;38103.47;10335816;28;20455;-70
2023/08/20 15:17:25;;;;;;;0.00;0.00;;;;;;;-145.06;68.71;38172.03;10326182;28;20026;-70
2023/08/20 15:22:25;;;;;;;0.00;0.00;;;;;;;-145.06;70.26;38234.56;10323714;28;20518;-70
2023/08/20 15:27:25;;;;;;;0.10;0.10;;;;;;;-145.06;69.95;38280.97;10325673;28;20065;-70
2023/08/20 15:32:27;;;;;;;0.00;0.00;;;;;;;-145.06;73.56;38141.78;10325224;28;20062;-70
2023/08/20 15:37:28;;;;;;;0.00;0.00;;;;;;;-145.06;69.39;38083.28;10379773;22;20417;-92
2023/08/20 15:42:28;;;;;;;0.10;0.10;;;;;;;-145.06;70.75;38113.53;10383312;28;20045;-93
2023/08/20 15:47:29;;;;;;;0.10;0.10;;;;;;;-145.06;70.48;38272.91;10370569;23;20321;-68
2023/08/20 15:52:29;;;;;;;0.10;0.10;;;;;;;-145.06;73.58;38333.41;10319029;28;20277;-66
2023/08/20 15:57:29;;;;;;;0.10;0.10;;;;;;;-145.06;70.75;38416.13;10313369;28;20069;-66
2023/08/20 16:02:29;;;;;;;0.00;0.00;;;;;;;-145.06;71.62;38381.81;10313526;28;20053;-66
2023/08/20 16:07:30;;;;;;;0.00;0.00;;;;;;;-145.06;72.06;38402.00;10314442;28;20023;-66
2023/08/20 16:12:31;;;;;;;0.10;0.10;;;;;;;-145.06;73.58;38472.59;10307028;28;20153;-66
2023/08/20 16:17:32;;;;;;;0.00;0.00;;;;;;;-145.06;74.50;38452.44;10318006;28;20038;-66
2023/08/20 16:22:32;;;;;;;0.00;0.00;;;;;;;-145.06;74.67;38490.75;10322335;28;20484;-65
2023/08/20 16:27:32;;;;;;;0.00;0.00;;;;;;;-145.06;76.14;38529.09;10322524;28;20019;-64
2023/08/20 16:32:33;;;;;;;0.00;0.00;;;;;;;-145.06;76.24;38531.09;10322066;28;20494;-68
2023/08/20 16:37:33;;;;;;;0.10;0.10;;;;;;;-145.06;76.15;38557.31;10321583;28;20468;-66
2023/08/20 16:42:35;;;;;;;0.00;0.00;;;;;;;-145.06;76.90;38545.22;10321074;28;20078;-65
2023/08/20 16:47:35;;;;;;;0.10;0.10;;;;;;;-145.06;78.35;38621.88;10322490;28;20210;-66
2023/08/20 16:52:35;;;;;;;0.00;0.00;;;;;;;-145.06;79.37;38597.66;10322497;28;20102;-65
2023/08/20 16:57:36;;;;;;;0.00;0.00;;;;;;;-145.06;80.15;38599.69;10324106;28;20475;-66
2023/08/20 17:02:36;;;;;;;0.00;0.00;;;;;;;-145.06;82.86;38636.00;10322289;28;20022;-66
2023/08/20 17:07:37;;;;;;;0.00;0.00;;;;;;;-145.06;83.86;38660.22;10322706;28;20106;-65
2023/08/20 17:12:37;;;;;;;0.00;0.00;;;;;;;-145.06;83.95;38684.41;10322443;28;20014;-65
2023/08/20 17:17:37;;;;;;;0.00;0.00;;;;;;;-145.06;84.68;38704.59;10322878;28;20074;-65
2023/08/20 17:22:38;;;;;;;0.00;0.00;;;;;;;-145.06;85.11;38738.88;10323203;28;20022;-65
2023/08/20 17:27:38;;;;;;;0.00;0.00;;;;;;;-145.06;85.42;38716.69;10315718;28;20432;-65
2023/08/20 17:32:39;;;;;;;0.00;0.00;;;;;;;-145.06;87.04;38773.19;10322974;28;20022;-65
2023/08/20 17:37:39;;;;;;;0.00;0.00;;;;;;;-145.06;89.20;38805.47;10324417;28;20117;-65
2023/08/20 17:42:40;;;;;;;0.00;0.00;;;;;;;-145.06;90.92;38861.94;10322572;28;20105;-65
2023/08/20 17:47:40;;;;;;;0.00;0.00;;;;;;;-145.06;93.52;38916.41;10316103;28;20026;-64
2023/08/20 17:52:40;;;;;;;0.10;0.10;;;;;;;-145.06;96.44;38934.56;10324662;28;20049;-64
2023/08/20 17:57:41;;;;;;;0.10;0.10;;;;;;;-145.06;96.44;38942.66;10324552;28;20041;-64
2023/08/20 18:02:41;;;;;;;0.00;0.00;;;;;;;-145.06;96.21;39009.22;10324190;28;20030;-64
2023/08/20 18:07:41;;;;;;;0.00;0.00;;;;;;;-145.06;97.11;38985.00;10324285;28;20026;-64
2023/08/20 18:12:42;;;;;;;0.00;0.00;;;;;;;-145.06;98.06;39031.41;10323209;28;20092;-65
2023/08/20 18:17:42;;;;;;;0.00;0.00;;;;;;;-145.06;100.00;39047.56;10326128;28;20265;-64
2023/08/20 18:22:42;;;;;;;0.00;0.00;;;;;;;-145.06;100.00;39043.53;10325544;28;20018;-64
2023/08/20 18:27:43;;;;;;;0.00;0.00;;;;;;;-145.06;100.00;39043.53;10326917;28;20022;-64
2023/08/20 18:32:43;;;;;;;0.10;0.10;;;;;;;-145.06;100.00;39144.41;10325758;28;20479;-65
2023/08/20 18:37:43;;;;;;;0.00;0.00;;;;;;;-145.06;100.00;39110.09;10326168;28;20029;-65
2023/08/20 18:42:44;;;;;;;0.00;0.00;;;;;;;-145.06;100.00;39168.63;10323264;28;20545;-65
2023/08/20 18:47:44;;;;;;;0.00;0.00;;;;;;;-145.06;100.00;39208.97;10325732;28;20431;-65
2023/08/20 18:52:44;;;;;;;0.10;0.10;;;;;;;-145.06;100.00;39194.84;10326973;28;20018;-64
2023/08/20 18:57:45;;;;;;;0.00;0.00;;;;;;;-145.06;100.00;39265.47;10324812;28;20034;-64
2023/08/20 19:02:45;;;;;;;0.10;0.10;;;;;;;-145.06;100.00;39239.22;10325821;28;20041;-64
2023/08/20 19:07:48;;;;;;;0.00;0.00;;;;;;;-145.06;100.00;39279.59;10326249;28;20105;-65
2023/08/20 19:12:48;;;;;;;0.10;0.10;;;;;;;-145.06;100.00;39317.91;10323145;28;20076;-63
2023/08/20 19:17:49;;;;;;;0.10;0.10;;;;;;;-145.06;100.00;39332.03;10326479;28;20442;-65
2023/08/20 19:22:49;;;;;;;0.00;0.00;;;;;;;-145.06;100.00;39336.06;10307634;28;20822;-64
2023/08/20 19:27:49;;;;;;;0.00;0.00;;;;;;;-145.06;100.00;39328.00;10313479;28;20023;-64
2023/08/20 19:32:50;;;;;;;0.00;0.00;;;;;;;-145.06;100.00;39382.50;10313093;28;20033;-64
2023/08/20 19:37:50;;;;;;;0.10;0.10;;;;;;;-145.06;100.00;39402.66;10313591;28;20019;-64
2023/08/20 19:42:50;;;;;;;0.00;0.00;;;;;;;-145.06;100.00;39384.50;10311369;28;20019;-64
2023/08/20 19:47:51;;;;;;;0.10;0.10;;;;;;;-145.06;100.00;39390.56;10313772;28;20479;-64
2023/08/20 19:52:52;;;;;;;0.00;0.00;;;;;;;-145.06;100.00;39396.59;10318816;28;20423;-64
2023/08/20 19:57:52;;;;;;;0.00;0.00;;;;;;;-145.06;100.00;39400.66;10323351;28;20061;-64
2023/08/20 20:02:53;;;;;;;0.00;0.00;;;;;;;-145.06;100.00;39414.78;10321409;28;20033;-67
2023/08/20 20:07:53;;;;;;;0.10;0.10;;;;;;;-145.06;100.00;39420.81;10323072;28;20488;-64
2023/08/20 20:12:54;;;;;;;0.00;0.00;;;;;;;-145.06;100.00;39422.84;10319982;28;20050;-64
2023/08/20 20:17:54;;;;;;;0.10;0.10;;;;;;;-145.06;100.00;39455.13;10323652;28;20109;-63
2023/08/20 20:22:54;;;;;;;0.00;0.00;;;;;;;-145.06;100.00;39495.47;10322365;28;20085;-63
2023/08/20 20:27:55;;;;;;;0.10;0.10;;;;;;;-145.06;100.00;39467.22;10323702;28;20023;-63
2023/08/20 20:32:57;;;;;;;0.00;0.00;;;;;;;-145.06;100.00;39487.41;10323103;28;20496;-63
2023/08/20 20:37:58;;;;;;;0.10;0.10;;;;;;;-145.06;100.00;39507.59;10301197;28;20026;-63
2023/08/20 20:42:58;;;;;;;0.10;0.10;;;;;;;-145.06;100.00;39535.84;10318923;28;20023;-63
2023/08/20 20:47:59;;;;;;;0.00;0.00;;;;;;;-145.06;100.00;39517.69;10323146;28;20046;-63
2023/08/20 20:52:59;;;;;;;0.00;0.00;;;;;;;-145.06;100.00;39527.75;10322154;28;20101;-64
2023/08/20 20:58:00;;;;;;;0.10;0.10;;;;;;;-145.06;100.00;39539.88;10321688;28;20218;-63
2023/08/20 21:03:00;;;;;;;0.00;0.00;;;;;;;-145.06;100.00;39560.06;10324257;28;20027;-63
2023/08/20 21:08:01;;;;;;;0.00;0.00;;;;;;;-145.06;100.00;39574.19;10324304;28;20052;-64
2023/08/20 21:13:02;;;;;;;0.10;0.10;;;;;;;-145.06;100.00;39578.22;10318788;28;20066;-63
2023/08/20 21:18:03;;;;;;;0.00;0.00;;;;;;;-145.06;100.00;39620.59;10319003;28;20512;-63
2023/08/20 21:23:03;;;;;;;0.00;0.00;;;;;;;-145.06;100.00;39614.53;10324169;28;20037;-63
2023/08/20 21:28:04;;;;;;;0.00;0.00;;;;;;;-145.06;100.00;39624.63;10324057;28;20022;-63
2023/08/20 21:33:05;;;;;;;0.10;0.10;;;;;;;-145.06;100.00;39650.84;10324487;28;20085;-63
2023/08/20 21:38:05;;;;;;;0.10;0.10;;;;;;;-145.06;100.00;39662.97;10324595;28;20022;-63
2023/08/20 21:43:05;;;;;;;0.00;0.00;;;;;;;-145.06;100.00;39693.22;10322517;28;20037;-63
2023/08/20 21:48:06;;;;;;;0.00;0.00;;;;;;;-145.06;100.00;39697.25;10325743;28;20034;-63
2023/08/20 21:53:06;;;;;;;0.10;0.10;;;;;;;-145.06;100.00;39683.13;10323143;28;20097;-63
2023/08/20 21:58:06;;;;;;;0.00;0.00;;;;;;;-145.06;100.00;39677.09;10326165;28;20018;-63
2023/08/20 22:03:07;;;;;;;0.10;0.10;;;;;;;-145.06;100.00;39662.97;10326188;28;20100;-63
2023/08/20 22:08:07;;;;;;;0.10;0.10;;;;;;;-145.06;100.00;39667.00;10325355;28;20022;-63
2023/08/20 22:13:08;;;;;;;0.00;0.00;;;;;;;-145.06;100.00;39644.81;10323534;28;20022;-63
2023/08/20 22:18:09;;;;;;;0.00;0.00;;;;;;;-145.06;100.00;39671.03;10326348;28;20027;-65
2023/08/20 22:23:09;;;;;;;0.10;0.10;;;;;;;-145.06;100.00;39687.19;10326689;28;20022;-63
2023/08/20 22:28:09;;;;;;;0.08;0.08;;;;;;;-145.06;100.00;39695.25;10326816;28;20153;-65
2023/08/20 22:33:10;;;;;;;0.00;0.00;;;;;;;-145.06;100.00;39709.38;10326792;28;20459;-63
2023/08/20 22:38:10;;;;;;;0.10;0.10;;;;;;;-145.06;100.00;39737.63;10326420;28;20498;-63
2023/08/20 22:43:11;;;;;;;0.10;0.10;;;;;;;-145.06;100.00;39689.19;10323900;28;20031;-63